createdAt,value
2022-09-24T00:01:28.220Z,100366.38
2022-09-24T00:03:57.335Z,100366.41
2022-09-24T00:06:24.220Z,100361.97
2022-09-24T00:08:55.025Z,100356.66
2022-09-24T00:11:23.472Z,100358.47
2022-09-24T00:13:52.064Z,100355.81
2022-09-24T00:16:21.180Z,100354.91
2022-09-24T00:18:47.930Z,100350.47
2022-09-24T00:21:21.103Z,100347.81
2022-09-24T00:23:56.439Z,100350.47
2022-09-24T00:26:41.933Z,100347.84
2022-09-24T00:29:09.794Z,100357.59
2022-09-24T00:31:36.708Z,100355.81
2022-09-24T00:34:04.457Z,100353.16
2022-09-24T00:36:30.991Z,100349.63
2022-09-24T00:38:59.649Z,100351.41
2022-09-24T00:41:30.066Z,100346.97
2022-09-24T00:43:57.653Z,100342.53
2022-09-24T00:46:41.100Z,100342.53
2022-09-24T00:49:12.523Z,100334.53
2022-09-24T00:51:41.484Z,100334.53
2022-09-24T00:54:11.695Z,100331.88
2022-09-24T00:56:40.976Z,100337.19
2022-09-24T00:59:11.534Z,100338.06
2022-09-24T01:01:38.054Z,100342.50
2022-09-24T01:04:07.297Z,100339.84
2022-09-24T01:06:33.950Z,100342.53
2022-09-24T01:09:00.889Z,100333.66
2022-09-24T01:11:45.839Z,100338.97
2022-09-24T01:14:32.935Z,100336.31
2022-09-24T01:17:20.892Z,100331.91
2022-09-24T01:19:58.572Z,100332.78
2022-09-24T01:22:54.616Z,100341.66
2022-09-24T01:25:36.337Z,100345.22
2022-09-24T01:28:27.608Z,100340.78
2022-09-24T01:31:01.076Z,100336.34
2022-09-24T01:33:31.308Z,100337.25
2022-09-24T01:36:04.864Z,100329.28
2022-09-24T01:38:38.608Z,100330.16
2022-09-24T01:41:08.481Z,100325.75
2022-09-24T01:43:35.130Z,100328.38
2022-09-24T01:46:05.974Z,100329.31
2022-09-24T01:48:37.417Z,100328.41
2022-09-24T01:51:26.640Z,100326.66
2022-09-24T01:54:04.545Z,100323.09
2022-09-24T01:56:41.356Z,100321.31
2022-09-24T01:59:19.508Z,100320.41
2022-09-24T02:01:57.098Z,100307.13
2022-09-24T02:04:27.312Z,100312.44
2022-09-24T02:07:03.184Z,100307.13
2022-09-24T02:09:34.125Z,100313.34
2022-09-24T02:12:08.952Z,100308.00
2022-09-24T02:14:42.550Z,100309.78
2022-09-24T02:17:10.769Z,100314.22
2022-09-24T02:19:39.776Z,100313.34
2022-09-24T02:22:09.476Z,100309.78
2022-09-24T02:24:45.595Z,100314.22
2022-09-24T02:27:12.459Z,100308.00
2022-09-24T02:29:39.414Z,100312.44
2022-09-24T02:32:09.279Z,100306.25
2022-09-24T02:34:44.129Z,100306.25
2022-09-24T02:37:14.096Z,100300.03
2022-09-24T02:39:41.670Z,100300.94
2022-09-24T02:42:11.229Z,100300.06
2022-09-24T02:44:37.810Z,100302.72
2022-09-24T02:47:04.855Z,100301.84
2022-09-24T02:49:31.323Z,100298.28
2022-09-24T02:51:57.922Z,100295.63
2022-09-24T02:54:25.250Z,100294.78
2022-09-24T02:56:52.280Z,100296.53
2022-09-24T02:59:19.358Z,100293.88
2022-09-24T03:01:46.671Z,100300.94
2022-09-24T03:04:15.530Z,100300.09
2022-09-24T03:06:42.777Z,100297.44
2022-09-24T03:09:12.928Z,100300.06
2022-09-24T03:11:40.025Z,100301.00
2022-09-24T03:14:06.736Z,100301.84
2022-09-24T03:16:33.842Z,100304.50
2022-09-24T03:19:00.455Z,100302.75
2022-09-24T03:21:26.984Z,100297.44
2022-09-24T03:23:53.692Z,100308.94
2022-09-24T03:26:20.239Z,100299.22
2022-09-24T03:28:46.767Z,100301.03
2022-09-24T03:31:14.931Z,100296.59
2022-09-24T03:33:44.160Z,100283.34
2022-09-24T03:36:16.194Z,100292.19
2022-09-24T03:38:44.165Z,100290.41
2022-09-24T03:41:12.190Z,100284.22
2022-09-24T03:43:39.181Z,100285.97
2022-09-24T03:46:07.495Z,100285.09
2022-09-24T03:48:36.769Z,100284.22
2022-09-24T03:51:05.296Z,100286.00
2022-09-24T03:53:32.526Z,100284.22
2022-09-24T03:55:59.967Z,100281.59
2022-09-24T03:58:26.712Z,100278.94
2022-09-24T04:00:54.064Z,100278.06
2022-09-24T04:03:22.250Z,100279.81
2022-09-24T04:05:51.278Z,100280.72
2022-09-24T04:08:22.206Z,100280.75
2022-09-24T04:10:50.365Z,100278.94
2022-09-24T04:13:18.522Z,100274.53
2022-09-24T04:15:45.500Z,100278.97
2022-09-24T04:18:12.313Z,100283.38
2022-09-24T04:20:38.808Z,100279.84
2022-09-24T04:23:05.444Z,100282.50
2022-09-24T04:25:32.704Z,100280.75
2022-09-24T04:28:05.741Z,100274.53
2022-09-24T04:30:33.783Z,100273.63
2022-09-24T04:33:01.153Z,100279.81
2022-09-24T04:35:29.944Z,100270.09
2022-09-24T04:37:57.245Z,100270.09
2022-09-24T04:40:23.979Z,100266.53
2022-09-24T04:42:50.762Z,100263.03
2022-09-24T04:45:21.261Z,100263.88
2022-09-24T04:47:57.282Z,100263.00
2022-09-24T04:50:26.236Z,100260.34
2022-09-24T04:52:54.027Z,100267.44
2022-09-24T04:55:21.097Z,100256.84
2022-09-24T04:57:47.974Z,100256.84
2022-09-24T05:00:17.382Z,100257.69
2022-09-24T05:02:44.938Z,100255.94
2022-09-24T05:05:13.137Z,100259.50
2022-09-24T05:07:40.186Z,100249.75
2022-09-24T05:10:07.197Z,100255.06
2022-09-24T05:12:36.427Z,100255.06
2022-09-24T05:15:04.256Z,100255.94
2022-09-24T05:17:31.064Z,100247.97
2022-09-24T05:20:01.438Z,100253.31
2022-09-24T05:22:28.001Z,100255.97
2022-09-24T05:24:54.937Z,100251.53
2022-09-24T05:27:23.163Z,100252.44
2022-09-24T05:29:50.302Z,100246.22
2022-09-24T05:32:19.679Z,100253.31
2022-09-24T05:34:47.322Z,100257.75
2022-09-24T05:37:15.175Z,100257.75
2022-09-24T05:39:41.845Z,100259.50
2022-09-24T05:42:15.718Z,100269.25
2022-09-24T05:44:44.256Z,100270.13
2022-09-24T05:47:13.236Z,100270.13
2022-09-24T05:49:39.672Z,100276.28
2022-09-24T05:52:06.492Z,100266.56
2022-09-24T05:54:33.130Z,100277.19
2022-09-24T05:57:00.040Z,100284.25
2022-09-24T05:59:26.505Z,100296.66
2022-09-24T06:01:53.036Z,100296.63
2022-09-24T06:04:19.649Z,100290.44
2022-09-24T06:06:46.126Z,100294.00
2022-09-24T06:09:13.541Z,100296.63
2022-09-24T06:11:41.128Z,100294.84
2022-09-24T06:14:08.744Z,100299.25
2022-09-24T06:16:35.928Z,100305.47
2022-09-24T06:19:02.723Z,100301.03
2022-09-24T06:21:29.368Z,100302.78
2022-09-24T06:23:56.011Z,100302.75
2022-09-24T06:26:22.650Z,100298.31
2022-09-24T06:28:49.331Z,100298.25
2022-09-24T06:31:15.735Z,100297.34
2022-09-24T06:33:42.516Z,100299.09
2022-09-24T06:36:09.405Z,100299.91
2022-09-24T06:38:36.508Z,100304.31
2022-09-24T06:41:05.184Z,100301.59
2022-09-24T06:43:32.693Z,100299.81
2022-09-24T06:46:00.259Z,100298.00
2022-09-24T06:48:28.061Z,100298.84
2022-09-24T06:50:56.241Z,100297.94
2022-09-24T06:53:22.842Z,100305.00
2022-09-24T06:55:49.337Z,100304.94
2022-09-24T06:58:20.993Z,100304.94
2022-09-24T07:00:58.931Z,100305.78
2022-09-24T07:03:27.732Z,100299.53
2022-09-24T07:05:54.598Z,100300.38
2022-09-24T07:08:21.598Z,100308.28
2022-09-24T07:10:49.198Z,100300.31
2022-09-24T07:13:16.496Z,100294.91
2022-09-24T07:15:43.970Z,100304.63
2022-09-24T07:18:12.207Z,100301.03
2022-09-24T07:20:39.437Z,100303.63
2022-09-24T07:23:08.007Z,100300.94
2022-09-24T07:25:34.746Z,100296.44
2022-09-24T07:28:06.653Z,100294.69
2022-09-24T07:30:34.730Z,100299.13
2022-09-24T07:33:01.315Z,100304.47
2022-09-24T07:35:28.752Z,100306.31
2022-09-24T07:38:03.651Z,100302.81
2022-09-24T07:40:31.245Z,100305.47
2022-09-24T07:42:58.535Z,100301.94
2022-09-24T07:45:30.154Z,100301.09
2022-09-24T07:47:58.441Z,100303.81
2022-09-24T07:50:25.579Z,100302.97
2022-09-24T07:52:52.119Z,100310.97
2022-09-24T07:55:19.031Z,100303.84
2022-09-24T07:57:51.862Z,100315.41
2022-09-24T08:00:20.221Z,100300.31
2022-09-24T08:02:47.770Z,100303.00
2022-09-24T08:05:18.016Z,100299.44
2022-09-24T08:07:55.515Z,100302.13
2022-09-24T08:10:23.202Z,100306.50
2022-09-24T08:12:49.719Z,100298.50
2022-09-24T08:15:16.748Z,100297.59
2022-09-24T08:17:43.447Z,100302.88
2022-09-24T08:20:10.397Z,100306.41
2022-09-24T08:22:36.940Z,100310.78
2022-09-24T08:25:04.389Z,100316.91
2022-09-24T08:27:33.072Z,100313.25
2022-09-24T08:30:00.705Z,100316.69
2022-09-24T08:32:29.174Z,100319.25
2022-09-24T08:34:55.661Z,100315.66
2022-09-24T08:37:22.321Z,100315.63
2022-09-24T08:39:48.807Z,100327.97
2022-09-24T08:42:30.905Z,100318.06
2022-09-24T08:45:17.318Z,100313.56
2022-09-24T08:47:50.339Z,100310.81
2022-09-24T08:50:25.609Z,100311.56
2022-09-24T08:53:14.874Z,100320.34
2022-09-24T08:55:45.968Z,100313.94
2022-09-24T08:58:28.408Z,100321.81
2022-09-24T09:01:10.029Z,100330.53
2022-09-24T09:03:39.302Z,100331.31
2022-09-24T09:06:36.060Z,100328.56
2022-09-24T09:09:20.275Z,100340.03
2022-09-24T09:11:51.412Z,100347.03
2022-09-24T09:14:26.093Z,100339.78
2022-09-24T09:17:00.391Z,100332.50
2022-09-24T09:19:33.752Z,100343.06
2022-09-24T09:22:11.388Z,100349.13
2022-09-24T09:24:52.498Z,100342.66
2022-09-24T09:27:20.792Z,100341.66
2022-09-24T09:29:51.741Z,100332.66
2022-09-24T09:32:39.151Z,100340.50
2022-09-24T09:35:31.306Z,100342.97
2022-09-24T09:38:09.954Z,100341.03
2022-09-24T09:40:46.012Z,100339.91
2022-09-24T09:43:14.609Z,100343.25
2022-09-24T09:45:56.397Z,100342.16
2022-09-24T09:48:27.009Z,100332.94
2022-09-24T09:50:59.289Z,100338.91
2022-09-24T09:53:28.357Z,100335.94
2022-09-24T09:56:00.858Z,100347.31
2022-09-24T09:58:31.150Z,100343.56
2022-09-24T10:01:31.708Z,100341.53
2022-09-24T10:04:04.514Z,100336.84
2022-09-24T10:06:33.482Z,100343.72
2022-09-24T10:09:11.865Z,100339.03
2022-09-24T10:11:38.403Z,100337.78
2022-09-24T10:14:06.275Z,100331.28
2022-09-24T10:16:51.317Z,100340.00
2022-09-24T10:19:23.727Z,100335.25
2022-09-24T10:21:52.400Z,100335.88
2022-09-24T10:24:22.490Z,100339.31
2022-09-24T10:26:49.723Z,100338.16
2022-09-24T10:29:49.349Z,100332.50
2022-09-24T10:32:24.019Z,100338.50
2022-09-24T10:34:58.633Z,100335.59
2022-09-24T10:37:25.745Z,100329.41
2022-09-24T10:40:10.725Z,100336.72
2022-09-24T10:42:37.883Z,100329.41
2022-09-24T10:45:14.008Z,100332.69
2022-09-24T10:47:59.431Z,100330.94
2022-09-24T10:50:34.431Z,100330.94
2022-09-24T10:53:06.685Z,100327.03
2022-09-24T10:55:46.105Z,100326.69
2022-09-24T10:58:29.879Z,100328.31
2022-09-24T11:01:11.631Z,100331.91
2022-09-24T11:04:07.295Z,100322.88
2022-09-24T11:06:49.557Z,100327.09
2022-09-24T11:09:40.861Z,100329.50
2022-09-24T11:12:24.725Z,100324.91
2022-09-24T11:15:21.891Z,100320.25
2022-09-24T11:17:57.408Z,100324.34
2022-09-24T11:20:35.723Z,100322.06
2022-09-24T11:23:23.333Z,100315.28
2022-09-24T11:26:02.995Z,100314.84
2022-09-24T11:28:59.647Z,100312.94
2022-09-24T11:31:34.354Z,100320.41
2022-09-24T11:34:38.825Z,100309.47
2022-09-24T11:37:23.044Z,100313.88
2022-09-24T11:39:55.449Z,100321.97
2022-09-24T11:42:28.985Z,100315.13
2022-09-24T11:45:11.160Z,100321.41
2022-09-24T11:48:04.044Z,100317.69
2022-09-24T11:51:07.828Z,100318.75
2022-09-24T11:53:49.222Z,100316.44
2022-09-24T11:56:46.221Z,100312.22
2022-09-24T11:59:34.905Z,100310.75
2022-09-24T12:02:13.833Z,100310.06
2022-09-24T12:04:51.021Z,100311.41
2022-09-24T12:07:24.546Z,100309.28
2022-09-24T12:10:13.703Z,100311.50
2022-09-24T12:12:43.006Z,100311.69
2022-09-24T12:15:21.929Z,100309.34
2022-09-24T12:17:54.764Z,100308.72
2022-09-24T12:20:28.239Z,100306.19
2022-09-24T12:23:01.851Z,100313.06
2022-09-24T12:25:34.630Z,100317.03
2022-09-24T12:28:01.628Z,100306.47
2022-09-24T12:31:01.659Z,100314.63
2022-09-24T12:33:42.562Z,100310.25
2022-09-24T12:36:19.647Z,100309.50
2022-09-24T12:39:09.571Z,100306.88
2022-09-24T12:41:39.745Z,100306.97
2022-09-24T12:44:21.732Z,100309.88
2022-09-24T12:46:53.692Z,100311.91
2022-09-24T12:49:26.286Z,100310.28
2022-09-24T12:51:55.760Z,100308.72
2022-09-24T12:54:35.127Z,100308.94
2022-09-24T12:57:22.832Z,100311.00
2022-09-24T12:59:58.992Z,100309.53
2022-09-24T13:02:29.068Z,100302.63
2022-09-24T13:05:01.865Z,100304.53
2022-09-24T13:07:40.736Z,100301.19
2022-09-24T13:10:16.516Z,100298.66
2022-09-24T13:12:43.924Z,100296.91
2022-09-24T13:15:33.803Z,100297.03
2022-09-24T13:18:13.774Z,100297.09
2022-09-24T13:20:47.612Z,100302.47
2022-09-24T13:23:22.286Z,100301.63
2022-09-24T13:26:03.772Z,100304.47
2022-09-24T13:29:01.547Z,100305.50
2022-09-24T13:31:28.060Z,100297.47
2022-09-24T13:34:11.610Z,100298.47
2022-09-24T13:36:47.073Z,100305.66
2022-09-24T13:39:46.784Z,100302.16
2022-09-24T13:42:19.883Z,100304.03
2022-09-24T13:44:55.462Z,100299.72
2022-09-24T13:47:37.948Z,100302.56
2022-09-24T13:50:15.006Z,100303.66
2022-09-24T13:52:53.854Z,100294.06
2022-09-24T13:55:31.527Z,100296.91
2022-09-24T13:57:58.126Z,100303.25
2022-09-24T14:00:27.550Z,100310.47
2022-09-24T14:03:17.409Z,100308.75
2022-09-24T14:05:44.295Z,100306.19
2022-09-24T14:08:15.592Z,100295.56
2022-09-24T14:10:42.943Z,100311.63
2022-09-24T14:13:21.818Z,100301.88
2022-09-24T14:15:56.495Z,100305.41
2022-09-24T14:18:24.783Z,100306.31
2022-09-24T14:21:25.784Z,100301.88
2022-09-24T14:24:00.163Z,100315.25
2022-09-24T14:26:34.193Z,100309.94
2022-09-24T14:29:07.607Z,100307.25
2022-09-24T14:31:43.864Z,100303.72
2022-09-24T14:34:24.385Z,100306.47
2022-09-24T14:36:51.421Z,100306.50
2022-09-24T14:39:17.977Z,100311.84
2022-09-24T14:41:44.585Z,100313.59
2022-09-24T14:44:27.738Z,100309.13
2022-09-24T14:46:58.150Z,100312.72
2022-09-24T14:49:32.326Z,100314.53
2022-09-24T14:52:04.203Z,100311.94
2022-09-24T14:54:40.205Z,100312.91
2022-09-24T14:57:18.935Z,100316.66
2022-09-24T14:59:46.684Z,100320.28
2022-09-24T15:02:29.809Z,100310.53
2022-09-24T15:05:05.483Z,100316.78
2022-09-24T15:07:34.858Z,100310.63
2022-09-24T15:10:04.256Z,100309.72
2022-09-24T15:12:33.671Z,100310.66
2022-09-24T15:15:24.934Z,100308.00
2022-09-24T15:17:51.393Z,100316.00
2022-09-24T15:20:17.860Z,100316.06
2022-09-24T15:22:46.725Z,100308.13
2022-09-24T15:25:14.655Z,100313.50
2022-09-24T15:27:44.362Z,100311.78
2022-09-24T15:30:17.690Z,100310.09
2022-09-24T15:32:44.204Z,100307.44
2022-09-24T15:35:15.677Z,100311.97
2022-09-24T15:37:43.162Z,100308.44
2022-09-24T15:40:33.736Z,100304.94
2022-09-24T15:43:00.292Z,100302.31
2022-09-24T15:45:26.766Z,100299.66
2022-09-24T15:47:53.785Z,100300.56
2022-09-24T15:50:22.502Z,100297.00
2022-09-24T15:52:54.217Z,100301.47
2022-09-24T15:55:22.303Z,100298.81
2022-09-24T15:57:48.918Z,100299.78
2022-09-24T16:00:18.483Z,100301.59
2022-09-24T16:02:49.581Z,100299.84
2022-09-24T16:05:16.924Z,100306.94
2022-09-24T16:07:43.429Z,100302.50
2022-09-24T16:10:11.679Z,100299.81
2022-09-24T16:12:38.696Z,100307.81
2022-09-24T16:15:05.808Z,100311.38
2022-09-24T16:17:32.901Z,100303.38
2022-09-24T16:19:59.841Z,100308.69
2022-09-24T16:22:26.363Z,100300.69
2022-09-24T16:24:54.122Z,100306.91
2022-09-24T16:27:20.664Z,100310.47
2022-09-24T16:29:47.191Z,100309.63
2022-09-24T16:32:13.918Z,100307.91
2022-09-24T16:34:40.960Z,100307.06
2022-09-24T16:37:08.646Z,100308.84
2022-09-24T16:39:35.178Z,100308.00
2022-09-24T16:42:02.027Z,100301.81
2022-09-24T16:44:28.496Z,100306.31
2022-09-24T16:46:54.991Z,100309.00
2022-09-24T16:49:23.715Z,100307.28
2022-09-24T16:51:50.277Z,100308.22
2022-09-24T16:54:18.918Z,100311.78
2022-09-24T16:56:50.141Z,100320.72
2022-09-24T16:59:16.665Z,100322.56
2022-09-24T17:01:43.218Z,100326.16
2022-09-24T17:04:10.259Z,100325.31
2022-09-24T17:06:37.767Z,100321.81
2022-09-24T17:09:23.056Z,100321.81
2022-09-24T17:11:49.858Z,100322.78
2022-09-24T17:14:17.748Z,100321.00
2022-09-24T17:16:44.687Z,100316.59
2022-09-24T17:19:11.893Z,100319.31
2022-09-24T17:21:41.202Z,100318.44
2022-09-24T17:24:08.349Z,100320.28
2022-09-24T17:26:35.317Z,100322.91
2022-09-24T17:29:01.950Z,100324.72
2022-09-24T17:31:28.718Z,100320.31
2022-09-24T17:33:57.132Z,100324.75
2022-09-24T17:36:24.563Z,100330.09
2022-09-24T17:38:51.921Z,100330.16
2022-09-24T17:41:19.208Z,100329.28
2022-09-24T17:43:45.916Z,100328.38
2022-09-24T17:46:22.556Z,100331.94
2022-09-24T17:48:52.115Z,100327.53
2022-09-24T17:51:32.493Z,100324.88
2022-09-24T17:54:01.489Z,100330.22
2022-09-24T17:56:30.205Z,100332.91
2022-09-24T17:58:56.745Z,100329.34
2022-09-24T18:01:27.761Z,100329.41
2022-09-24T18:03:56.098Z,100332.97
2022-09-24T18:06:27.100Z,100328.53
2022-09-24T18:08:56.986Z,100333.00
2022-09-24T18:11:25.983Z,100331.25
2022-09-24T18:13:57.580Z,100332.19
2022-09-24T18:16:30.173Z,100336.66
2022-09-24T18:18:59.580Z,100337.53
2022-09-24T18:21:26.888Z,100341.13
2022-09-24T18:23:54.672Z,100343.78
2022-09-24T18:26:28.143Z,100351.75
2022-09-24T18:29:15.767Z,100345.56
2022-09-24T18:31:43.143Z,100347.38
2022-09-24T18:34:13.071Z,100349.16
2022-09-24T18:36:41.119Z,100349.16
2022-09-24T18:39:11.555Z,100345.63
2022-09-24T18:41:38.724Z,100347.41
2022-09-24T18:44:06.219Z,100350.09
2022-09-24T18:46:33.697Z,100346.53
2022-09-24T18:49:02.090Z,100341.22
2022-09-24T18:51:33.938Z,100345.66
2022-09-24T18:54:21.339Z,100343.00
2022-09-24T18:56:47.857Z,100343.06
2022-09-24T18:59:18.036Z,100347.47
2022-09-24T19:01:46.885Z,100335.97
2022-09-24T19:04:14.224Z,100344.84
2022-09-24T19:06:43.198Z,100351.94
2022-09-24T19:09:11.602Z,100343.97
2022-09-24T19:11:39.824Z,100349.28
2022-09-24T19:14:06.555Z,100353.75
2022-09-24T19:16:33.524Z,100343.09
2022-09-24T19:19:01.178Z,100339.59
2022-09-24T19:21:27.841Z,100348.47
2022-09-24T19:23:56.198Z,100345.84
2022-09-24T19:26:26.126Z,100344.06
2022-09-24T19:28:53.668Z,100341.41
2022-09-24T19:31:23.196Z,100344.09
2022-09-24T19:33:51.680Z,100342.31
2022-09-24T19:36:19.000Z,100347.66
2022-09-24T19:38:45.954Z,100338.78
2022-09-24T19:41:21.245Z,100344.09
2022-09-24T19:43:49.119Z,100344.09
2022-09-24T19:46:17.069Z,100341.47
2022-09-24T19:48:46.238Z,100341.44
2022-09-24T19:51:16.092Z,100342.34
2022-09-24T19:53:43.660Z,100336.13
2022-09-24T19:56:14.242Z,100339.69
2022-09-24T19:58:41.324Z,100333.50
2022-09-24T20:01:11.419Z,100337.03
2022-09-24T20:03:41.691Z,100330.84
2022-09-24T20:06:14.217Z,100329.97
2022-09-24T20:08:41.570Z,100315.81
2022-09-24T20:11:10.857Z,100328.19
2022-09-24T20:13:46.270Z,100321.09
2022-09-24T20:16:19.693Z,100322.00
2022-09-24T20:18:50.476Z,100318.44
2022-09-24T20:21:18.833Z,100311.34
2022-09-24T20:23:47.061Z,100311.34
2022-09-24T20:26:33.760Z,100318.44
2022-09-24T20:29:02.070Z,100311.34
2022-09-24T20:31:29.233Z,100317.56
2022-09-24T20:33:56.340Z,100319.34
2022-09-24T20:36:24.617Z,100314.03
2022-09-24T20:38:52.332Z,100317.56
2022-09-24T20:41:21.679Z,100319.38
2022-09-24T20:43:48.519Z,100317.56
2022-09-24T20:46:24.329Z,100320.25
2022-09-24T20:48:51.887Z,100321.16
2022-09-24T20:51:21.247Z,100319.34
2022-09-24T20:53:49.164Z,100323.78
2022-09-24T20:56:17.930Z,100318.47
2022-09-24T20:58:44.524Z,100317.59
2022-09-24T21:01:11.605Z,100315.84
2022-09-24T21:03:45.247Z,100322.91
2022-09-24T21:06:14.906Z,100315.84
2022-09-24T21:08:44.179Z,100318.50
2022-09-24T21:11:17.944Z,100320.28
2022-09-24T21:13:50.767Z,100321.19
2022-09-24T21:16:22.624Z,100319.41
2022-09-24T21:18:50.728Z,100322.97
2022-09-24T21:21:26.398Z,100322.06
2022-09-24T21:23:54.222Z,100326.50
2022-09-24T21:26:29.010Z,100328.28
2022-09-24T21:29:05.419Z,100330.94
2022-09-24T21:31:33.314Z,100330.97
2022-09-24T21:34:00.460Z,100329.22
2022-09-24T21:36:29.939Z,100335.41
2022-09-24T21:38:59.225Z,100332.75
2022-09-24T21:41:28.411Z,100335.44
2022-09-24T21:43:55.787Z,100335.44
2022-09-24T21:46:23.878Z,100330.97
2022-09-24T21:48:51.250Z,100334.53
2022-09-24T21:51:22.165Z,100337.19
2022-09-24T21:53:50.525Z,100330.97
2022-09-24T21:56:20.580Z,100334.53
2022-09-24T21:58:48.352Z,100330.94
2022-09-24T22:01:18.007Z,100331.81
2022-09-24T22:03:47.481Z,100331.81
2022-09-24T22:06:15.339Z,100329.16
2022-09-24T22:08:43.060Z,100333.59
2022-09-24T22:11:11.453Z,100332.72
2022-09-24T22:13:38.793Z,100330.06
2022-09-24T22:16:07.875Z,100334.47
2022-09-24T22:18:34.804Z,100333.59
2022-09-24T22:21:09.189Z,100330.94
2022-09-24T22:23:35.904Z,100328.28
2022-09-24T22:26:03.116Z,100325.63
2022-09-24T22:28:29.899Z,100325.66
2022-09-24T22:30:59.394Z,100328.28
2022-09-24T22:33:47.619Z,100325.66
2022-09-24T22:36:14.491Z,100323.84
2022-09-24T22:38:41.280Z,100322.97
2022-09-24T22:41:10.730Z,100323.88
2022-09-24T22:43:38.499Z,100327.41
2022-09-24T22:46:09.896Z,100324.75
2022-09-24T22:48:36.562Z,100325.66
2022-09-24T22:51:04.851Z,100322.97
2022-09-24T22:53:39.248Z,100315.00
2022-09-24T22:56:11.622Z,100317.66
2022-09-24T22:58:41.271Z,100310.56
2022-09-24T23:01:10.035Z,100315.91
2022-09-24T23:03:37.664Z,100318.53
2022-09-24T23:06:06.109Z,100318.53
2022-09-24T23:08:34.390Z,100318.53
2022-09-24T23:11:19.302Z,100313.25
2022-09-24T23:13:50.425Z,100324.78
2022-09-24T23:16:19.390Z,100317.66
2022-09-24T23:18:47.854Z,100316.78
2022-09-24T23:21:19.781Z,100315.91
2022-09-24T23:23:46.890Z,100315.03
2022-09-24T23:26:17.101Z,100308.81
2022-09-24T23:28:45.973Z,100317.69
2022-09-24T23:31:14.569Z,100312.34
2022-09-24T23:33:42.190Z,100314.13
2022-09-24T23:36:11.193Z,100315.91
2022-09-24T23:38:38.057Z,100315.91
2022-09-24T23:41:05.947Z,100310.56
2022-09-24T23:43:33.311Z,100307.91
2022-09-24T23:46:01.180Z,100319.44
2022-09-24T23:48:28.341Z,100307.94
2022-09-24T23:50:55.050Z,100304.38
2022-09-24T23:53:21.954Z,100311.47
2022-09-24T23:55:49.506Z,100306.16
2022-09-24T23:58:19.117Z,100312.31
